Carrs, Kentucky
Current Conditions -  °F | °C
As of 11:35 AM on Wednesday 22 Oct 2014 (Local Time) from KFGX Reporting Station
Overcast Overcast  
Wind Chill: 49°   Ceiling: 2200
Heat Index: 49°   Visibility: 10mi
Dew Point: 40°   Wind: 3mph
Humidity: 74%   Direction: 350°N
Pressure: 30.29"   Gusts: NA
Location:  38.4929°N, 83.3898°W
Report Text: KFGX 221535Z AUTO 35003KT 10SM OVC022 09/05 A3029 RMK AO2 T00920047
Loading
Personal Weather Stations






























Interactive Weather Map
Tropical Storm Tracking
New forecast layout! Learn more

10-Day Weather Forecast

Advertisements
Track Severe Weather on mobile